Clarcona, FL (32710)

9:48 PM EDT on May 06, 2015 (GMT -0400)
RCACF | | Change Station
CLOSE
Current Station
Personal Weather Station
Location: Apopka, FL
Elevation: 72 ft
Nearby Weather Stations

Elev 72 ft 28.64 °N, 81.51 °W | Updated 26 seconds ago

Partly Cloudy
Partly Cloudy
72.0 °F
Feels Like 72.0 °F
N
8.1
Wind Variable Wind from NNE
Gusts 9.8 mph

Today
High -- | Low -- °F
--% Chance of Precip.
Yesterday
High -- | Low -- °F
Precip. -- in
6:41 AM 8:04 PM
Waning Gibbous, 91% visible
Pressure 30.04 in
Visibility 10.0 miles
Clouds Clear
Dew Point 68 °F
Humidity 89%
Rainfall 0.04 in
Snow Depth Not available.
UV 0 out of 12
Pollen 5.50 out of 12
Air Quality Not available.
Flu Activity Local Activity
METAR KORL 070053Z 04010KT 10SM CLR 23/18 A3003 RMK AO2 SLP172 T02330183

More Conditions Fewer Conditions

Pressure 30.04 in
Visibility 10.0 miles
Clouds Clear
Dew Point 68 °F
Humidity 89%
Rainfall 0.04 in
Snow Depth Not available.
UV 0 out of 12
Pollen 5.50 out of 12
Air Quality Not available.
Flu Activity Local Activity
METAR KORL 070053Z 04010KT 10SM CLR 23/18 A3003 RMK AO2 SLP172 T02330183

More Conditions Fewer Conditions

The National Hurricane Center is watching an area of disturbed weather just east of Florida for development. There is a 60% chance of intensification over the next 2 days and this system could become the first named tropical storm of the year. Many atmospheric models take the system close to the coasts of South Carolina and North Carolina later this week, but will have to wait for more information to be more confident in its track.

Nowcast | as of 6:45 PM EDT on May 6, 2015

partly cloudy and cooler tonight... North winds on the back side of developing low pressure well east of Florida will filter cooler and drier air south into the area overnight. Temperatures will fall into the 60s early Thursday with winds diminishing to 10 mph or less after dark. Winds will remain a little higher near 10 to 15 mph at the beachfront locations. Some rough surf will be present at area beaches into Thursday. Additional details...including graphics are available online at: http://www.Srh.NOAA.Gov/mlb/blog.Php

×

10-Day Weather Forecast

Almanac

Astronomy

May. 06, 2015 Rise Set
Actual Time
Civil Twilight
Nautical Twilight
Astronomical Twilight
Moon
Length of Visible Light
Length of Day
Tomorrow will be .
, % of the Moon is Illuminated

Today's Extremes

State Highs State Lows

Community

WunderPhotos

Upload Photos

1,819,070 photos uploaded!

WunderBlogs® & News

Nearby

Air Quality

  Air Quality AQ Index Pollutant
Not available.

Snow Depth

Station Depth Elevation

Earthquake Activity

City Distance Mag. Time & Date
Minimum magnitude displayed is 2.5.

Coastal Water Temperatures

Place Temperature

Stations

Nearby Weather Stations

Station Location Temp. Windchill Dew Point Humidity Wind Precip. Elev Updated Type